createdAt,value
2023-04-21T00:01:23.054Z,38.38
2023-04-21T00:06:24.723Z,42.78
2023-04-21T00:11:27.689Z,42.78
2023-04-21T00:16:29.388Z,42.65
2023-04-21T00:21:31.061Z,45.35
2023-04-21T00:26:34.056Z,42.72
2023-04-21T00:31:36.055Z,39.00
2023-04-21T00:36:39.832Z,39.17
2023-04-21T00:41:42.843Z,38.50
2023-04-21T00:46:44.502Z,42.22
2023-04-21T00:51:46.170Z,41.33
2023-04-21T00:56:49.146Z,41.97
2023-04-21T01:01:50.803Z,40.67
2023-04-21T01:06:52.525Z,40.67
2023-04-21T01:12:02.810Z,36.70
2023-04-21T01:17:04.805Z,42.45
2023-04-21T01:22:08.828Z,45.13
2023-04-21T01:27:11.212Z,45.58
2023-04-21T01:32:14.307Z,42.83
2023-04-21T01:37:22.237Z,39.50
2023-04-21T01:42:27.564Z,43.95
2023-04-21T01:47:29.317Z,38.92
2023-04-21T01:52:32.379Z,39.53
2023-04-21T01:57:34.163Z,39.67
2023-04-21T02:02:35.905Z,39.13
2023-04-21T02:07:39.392Z,39.72
2023-04-21T02:12:41.093Z,40.15
2023-04-21T02:17:44.403Z,41.28
2023-04-21T02:22:47.370Z,37.42
2023-04-21T02:27:48.933Z,35.50
2023-04-21T02:32:50.648Z,37.75
2023-04-21T02:37:53.782Z,37.05
2023-04-21T02:42:57.974Z,38.88
2023-04-21T02:48:00.368Z,40.25
2023-04-21T02:53:03.531Z,43.20
2023-04-21T02:58:05.160Z,35.58
2023-04-21T03:03:06.899Z,40.30
2023-04-21T03:08:11.395Z,36.95
2023-04-21T03:13:13.494Z,38.78
2023-04-21T03:18:15.135Z,41.97
2023-04-21T03:23:18.108Z,40.88
2023-04-21T03:28:19.720Z,43.65
2023-04-21T03:33:21.364Z,42.90
2023-04-21T03:38:24.502Z,39.58
2023-04-21T03:43:26.100Z,36.58
2023-04-21T03:48:27.921Z,39.45
2023-04-21T03:53:30.913Z,43.28
2023-04-21T03:58:32.578Z,38.70
2023-04-21T04:03:37.457Z,38.80
2023-04-21T04:08:41.169Z,34.38
2023-04-21T04:13:42.760Z,33.60
2023-04-21T04:18:44.429Z,36.17
2023-04-21T04:23:47.501Z,37.90
2023-04-21T04:28:49.141Z,43.00
2023-04-21T04:33:52.772Z,38.72
2023-04-21T04:38:57.238Z,39.78
2023-04-21T04:44:01.074Z,42.13
2023-04-21T04:49:03.062Z,38.30
2023-04-21T04:54:06.064Z,39.03
2023-04-21T04:59:07.807Z,33.35
2023-04-21T05:04:09.646Z,34.28
2023-04-21T05:09:13.108Z,34.22
2023-04-21T05:14:14.707Z,37.28
2023-04-21T05:19:19.252Z,38.42
2023-04-21T05:24:24.166Z,34.53
2023-04-21T05:29:26.074Z,35.00
2023-04-21T05:34:27.745Z,32.40
2023-04-21T05:39:30.789Z,34.70
2023-04-21T05:44:32.454Z,34.05
2023-04-21T05:49:34.155Z,37.75
2023-04-21T05:54:37.147Z,36.15
2023-04-21T05:59:40.386Z,33.03
2023-04-21T06:04:42.162Z,34.47
2023-04-21T06:09:51.284Z,35.38
2023-04-21T06:14:52.967Z,34.40
2023-04-21T06:19:54.633Z,35.47
2023-04-21T06:25:00.803Z,33.72
2023-04-21T06:30:02.532Z,35.28
2023-04-21T06:35:04.851Z,32.60
2023-04-21T06:40:08.863Z,31.88
2023-04-21T06:45:11.125Z,31.63
2023-04-21T06:50:15.774Z,32.20
2023-04-21T06:55:19.111Z,33.65
2023-04-21T07:00:20.784Z,34.03
2023-04-21T07:05:22.461Z,32.85
2023-04-21T07:10:26.205Z,36.38
2023-04-21T07:15:27.873Z,35.08
2023-04-21T07:20:29.601Z,37.38
2023-04-21T07:25:32.582Z,35.47
2023-04-21T07:30:36.897Z,33.55
2023-04-21T07:35:38.568Z,34.53
2023-04-21T07:40:41.799Z,33.55
2023-04-21T07:45:43.423Z,32.33
2023-04-21T07:50:46.797Z,31.67
2023-04-21T07:55:49.848Z,30.67
2023-04-21T08:00:51.575Z,34.15
2023-04-21T08:05:53.393Z,34.70
2023-04-21T08:10:57.091Z,36.50
2023-04-21T08:15:58.762Z,35.13
2023-04-21T08:21:00.540Z,31.60
2023-04-21T08:26:03.947Z,32.00
2023-04-21T08:31:08.357Z,32.20
2023-04-21T08:36:18.273Z,31.17
2023-04-21T08:41:29.539Z,30.93
2023-04-21T08:46:32.450Z,32.20
2023-04-21T08:51:34.148Z,31.17
2023-04-21T08:56:37.389Z,32.47
2023-04-21T09:02:07.420Z,32.15
2023-04-21T09:07:09.383Z,29.85
2023-04-21T09:12:20.135Z,29.67
2023-04-21T09:17:23.799Z,28.40
2023-04-21T09:22:27.444Z,29.00
2023-04-21T09:27:31.769Z,30.42
2023-04-21T09:32:36.670Z,30.17
2023-04-21T09:37:39.030Z,32.40
2023-04-21T09:42:45.199Z,28.33
2023-04-21T09:47:50.461Z,28.85
2023-04-21T09:52:54.186Z,24.67
2023-04-21T09:57:58.426Z,28.52
2023-04-21T10:03:04.779Z,30.10
2023-04-21T10:08:06.704Z,30.30
2023-04-21T10:13:14.791Z,23.67
2023-04-21T10:18:17.930Z,28.15
2023-04-21T10:23:36.417Z,29.42
2023-04-21T10:28:45.420Z,27.67
2023-04-21T10:34:19.084Z,25.70
2023-04-21T10:39:30.626Z,23.23
2023-04-21T10:44:33.719Z,22.50
2023-04-21T10:49:39.133Z,26.00
2023-04-21T10:54:42.717Z,23.00
2023-04-21T10:59:46.615Z,22.27
2023-04-21T11:04:51.041Z,22.50
2023-04-21T11:09:57.751Z,21.35
2023-04-21T11:15:04.618Z,22.60
2023-04-21T11:20:07.658Z,21.67
2023-04-21T11:25:16.897Z,21.15
2023-04-21T11:30:20.287Z,19.38
2023-04-21T11:35:22.081Z,21.15
2023-04-21T11:40:23.686Z,19.67
2023-04-21T11:45:29.004Z,17.83
2023-04-21T11:50:31.284Z,17.38
2023-04-21T11:55:33.536Z,16.48
2023-04-21T12:00:36.609Z,16.58
2023-04-21T12:05:38.363Z,18.17
2023-04-21T12:10:44.653Z,18.60
2023-04-21T12:15:48.838Z,17.23
2023-04-21T12:20:51.226Z,18.95
2023-04-21T12:25:52.978Z,19.05
2023-04-21T12:30:55.939Z,18.83
2023-04-21T12:35:57.584Z,19.05
2023-04-21T12:40:59.238Z,18.88
2023-04-21T12:46:02.223Z,17.02
2023-04-21T12:51:04.177Z,19.10
2023-04-21T12:56:08.674Z,18.13
2023-04-21T13:01:11.734Z,19.20
2023-04-21T13:06:16.052Z,17.23
2023-04-21T13:11:17.806Z,15.80
2023-04-21T13:16:20.978Z,15.40
2023-04-21T13:21:22.692Z,17.33
2023-04-21T13:26:24.396Z,15.60
2023-04-21T13:31:27.814Z,16.15
2023-04-21T13:36:29.723Z,14.63
2023-04-21T13:41:31.415Z,15.32
2023-04-21T13:46:34.680Z,15.75
2023-04-21T13:51:36.632Z,14.57
2023-04-21T13:56:38.693Z,14.68
2023-04-21T14:01:41.928Z,14.40
2023-04-21T14:06:43.715Z,13.57
2023-04-21T14:11:45.399Z,14.00
2023-04-21T14:16:48.672Z,12.82
2023-04-21T14:21:53.137Z,12.10
2023-04-21T14:26:54.803Z,11.88
2023-04-21T14:31:58.009Z,11.68
2023-04-21T14:36:59.902Z,11.20
2023-04-21T14:42:01.798Z,10.60
2023-04-21T14:47:09.794Z,9.90
2023-04-21T14:52:15.140Z,9.73
2023-04-21T14:57:20.938Z,9.48
2023-04-21T15:02:24.513Z,10.52
2023-04-21T15:07:26.441Z,9.93
2023-04-21T15:12:28.166Z,9.52
2023-04-21T15:17:31.511Z,8.80
2023-04-21T15:22:33.210Z,8.70
2023-04-21T15:27:34.954Z,8.20
2023-04-21T15:32:38.235Z,8.55
2023-04-21T15:37:42.854Z,8.50
2023-04-21T15:42:44.554Z,8.55
2023-04-21T15:47:47.576Z,9.05
2023-04-21T15:52:49.305Z,9.85
2023-04-21T15:57:50.975Z,9.60
2023-04-21T16:02:54.270Z,9.18
2023-04-21T16:07:56.013Z,10.15
2023-04-21T16:12:57.637Z,9.40
2023-04-21T16:18:00.858Z,8.85
2023-04-21T16:23:05.864Z,9.20
2023-04-21T16:28:07.722Z,10.25
2023-04-21T16:33:10.890Z,8.88
2023-04-21T16:38:12.779Z,7.85
2023-04-21T16:43:14.489Z,8.73
2023-04-21T16:48:19.894Z,9.68
2023-04-21T16:53:21.530Z,9.13
2023-04-21T16:58:23.183Z,10.32
2023-04-21T17:03:27.255Z,9.40
2023-04-21T17:08:29.128Z,11.73
2023-04-21T17:13:31.087Z,8.98
2023-04-21T17:18:34.137Z,10.15
2023-04-21T17:23:35.667Z,9.60
2023-04-21T17:28:37.317Z,8.93
2023-04-21T17:33:41.684Z,9.73
2023-04-21T17:38:43.307Z,10.70
2023-04-21T17:43:47.518Z,12.07
2023-04-21T17:48:50.473Z,10.90
2023-04-21T17:53:52.083Z,6.38
2023-04-21T17:58:53.697Z,6.28
2023-04-21T18:04:00.618Z,7.10
2023-04-21T18:09:03.510Z,6.32
2023-04-21T18:14:06.096Z,6.10
2023-04-21T18:19:09.277Z,7.03
2023-04-21T18:24:10.998Z,6.18
2023-04-21T18:29:12.642Z,5.88
2023-04-21T18:34:17.006Z,5.60
2023-04-21T18:39:18.665Z,5.38
2023-04-21T18:44:22.067Z,6.57
2023-04-21T18:49:25.037Z,5.85
2023-04-21T18:54:27.183Z,5.72
2023-04-21T18:59:28.895Z,6.05
2023-04-21T19:04:31.988Z,6.00
2023-04-21T19:09:35.771Z,8.15
2023-04-21T19:14:46.671Z,5.45
2023-04-21T19:19:50.475Z,6.75
2023-04-21T19:24:52.177Z,9.20
2023-04-21T19:29:53.935Z,5.70
2023-04-21T19:34:57.304Z,7.07
2023-04-21T19:39:58.956Z,7.95
2023-04-21T19:45:00.659Z,7.03
2023-04-21T19:50:04.002Z,11.65
2023-04-21T19:55:06.342Z,6.60
2023-04-21T20:00:09.328Z,6.60
2023-04-21T20:05:15.273Z,6.88
2023-04-21T20:10:17.187Z,6.75
2023-04-21T20:15:18.995Z,8.25
2023-04-21T20:20:22.600Z,7.97
2023-04-21T20:25:24.346Z,13.82
2023-04-21T20:30:26.115Z,9.60
2023-04-21T20:35:29.233Z,9.35
2023-04-21T20:40:30.858Z,9.00
2023-04-21T20:45:32.542Z,9.63
2023-04-21T20:50:35.596Z,7.43
2023-04-21T20:55:37.385Z,7.88
2023-04-21T21:00:39.200Z,8.48
2023-04-21T21:05:42.380Z,7.93
2023-04-21T21:10:44.225Z,11.68
2023-04-21T21:15:46.133Z,8.30
2023-04-21T21:20:49.514Z,9.82
2023-04-21T21:25:51.220Z,10.77
2023-04-21T21:30:52.962Z,10.20
2023-04-21T21:35:56.264Z,9.90
2023-04-21T21:40:57.956Z,9.65
2023-04-21T21:45:59.674Z,9.27
2023-04-21T21:51:02.727Z,9.02
2023-04-21T21:56:05.263Z,9.15
2023-04-21T22:01:06.946Z,9.27
2023-04-21T22:06:10.065Z,9.73
2023-04-21T22:11:13.400Z,9.65
2023-04-21T22:16:15.139Z,8.65
2023-04-21T22:21:20.800Z,8.13
2023-04-21T22:26:22.422Z,7.60
2023-04-21T22:31:24.090Z,7.60
2023-04-21T22:36:27.481Z,8.95
2023-04-21T22:41:29.105Z,8.35
2023-04-21T22:46:31.934Z,7.25
2023-04-21T22:51:35.053Z,8.20
2023-04-21T22:56:36.730Z,8.20
2023-04-21T23:01:38.437Z,8.15
2023-04-21T23:06:41.505Z,8.98
2023-04-21T23:11:43.183Z,7.78
2023-04-21T23:16:44.832Z,7.70
2023-04-21T23:21:47.904Z,7.07
2023-04-21T23:26:49.519Z,6.50
2023-04-21T23:31:54.061Z,6.70
2023-04-21T23:36:57.279Z,6.63
2023-04-21T23:41:58.908Z,7.75
2023-04-21T23:47:00.562Z,7.03
2023-04-21T23:52:03.620Z,7.20
2023-04-21T23:57:05.250Z,8.13
